sensor_id;sensor_type;location;lat;lon;timestamp;temperature;humidity
15217;DHT22;7711;46.634;14.318;2023-03-01T00:00:05;0.20;99.90
15217;DHT22;7711;46.634;14.318;2023-03-01T00:02:33;0.20;99.90
15217;DHT22;7711;46.634;14.318;2023-03-01T00:05:02;0.10;99.90
15217;DHT22;7711;46.634;14.318;2023-03-01T00:07:29;0.10;99.90
15217;DHT22;7711;46.634;14.318;2023-03-01T00:09:56;0.10;99.90
15217;DHT22;7711;46.634;14.318;2023-03-01T00:12:23;0.10;99.90
15217;DHT22;7711;46.634;14.318;2023-03-01T00:14:50;0.10;99.90
15217;DHT22;7711;46.634;14.318;2023-03-01T00:17:17;0.10;99.90
15217;DHT22;7711;46.634;14.318;2023-03-01T00:19:44;0.10;99.90
15217;DHT22;7711;46.634;14.318;2023-03-01T00:22:13;0.10;99.90
15217;DHT22;7711;46.634;14.318;2023-03-01T00:24:40;0.10;99.90
15217;DHT22;7711;46.634;14.318;2023-03-01T00:27:07;0.20;99.90
15217;DHT22;7711;46.634;14.318;2023-03-01T00:29:34;0.20;99.90
15217;DHT22;7711;46.634;14.318;2023-03-01T00:32:01;0.10;99.90
15217;DHT22;7711;46.634;14.318;2023-03-01T00:34:28;0.20;99.90
15217;DHT22;7711;46.634;14.318;2023-03-01T00:36:55;0.20;99.90
15217;DHT22;7711;46.634;14.318;2023-03-01T00:39:32;0.20;99.90
15217;DHT22;7711;46.634;14.318;2023-03-01T00:41:59;0.20;99.90
15217;DHT22;7711;46.634;14.318;2023-03-01T00:44:26;0.20;99.90
15217;DHT22;7711;46.634;14.318;2023-03-01T00:46:54;0.10;99.90
15217;DHT22;7711;46.634;14.318;2023-03-01T00:49:20;0.10;99.90
15217;DHT22;7711;46.634;14.318;2023-03-01T00:51:49;0.20;99.90
15217;DHT22;7711;46.634;14.318;2023-03-01T00:54:16;0.20;99.90
15217;DHT22;7711;46.634;14.318;2023-03-01T00:56:45;0.20;99.90
15217;DHT22;7711;46.634;14.318;2023-03-01T00:59:12;0.20;99.90
15217;DHT22;7711;46.634;14.318;2023-03-01T01:01:39;0.20;99.90
15217;DHT22;7711;46.634;14.318;2023-03-01T01:04:08;0.10;99.90
15217;DHT22;7711;46.634;14.318;2023-03-01T01:06:38;0.10;99.90
15217;DHT22;7711;46.634;14.318;2023-03-01T01:09:06;0.10;99.90
15217;DHT22;7711;46.634;14.318;2023-03-01T01:11:34;0.10;99.90
15217;DHT22;7711;46.634;14.318;2023-03-01T01:14:03;0.20;99.90
15217;DHT22;7711;46.634;14.318;2023-03-01T01:16:30;0.20;99.90
15217;DHT22;7711;46.634;14.318;2023-03-01T01:18:57;0.10;99.90
15217;DHT22;7711;46.634;14.318;2023-03-01T01:21:25;0.10;99.90
15217;DHT22;7711;46.634;14.318;2023-03-01T01:23:52;0.10;99.90
15217;DHT22;7711;46.634;14.318;2023-03-01T01:26:23;0.10;99.90
15217;DHT22;7711;46.634;14.318;2023-03-01T01:28:50;0.10;99.90
15217;DHT22;7711;46.634;14.318;2023-03-01T01:31:20;0.20;99.90
15217;DHT22;7711;46.634;14.318;2023-03-01T01:33:49;0.10;99.90
15217;DHT22;7711;46.634;14.318;2023-03-01T01:36:17;0.10;99.90
15217;DHT22;7711;46.634;14.318;2023-03-01T01:38:44;0.00;99.90
15217;DHT22;7711;46.634;14.318;2023-03-01T01:41:12;0.10;99.90
15217;DHT22;7711;46.634;14.318;2023-03-01T01:43:42;0.00;99.90
15217;DHT22;7711;46.634;14.318;2023-03-01T01:46:21;-0.10;99.90
15217;DHT22;7711;46.634;14.318;2023-03-01T01:48:54;-0.10;99.90
15217;DHT22;7711;46.634;14.318;2023-03-01T01:51:25;0.00;99.90
15217;DHT22;7711;46.634;14.318;2023-03-01T01:53:58;0.00;99.90
15217;DHT22;7711;46.634;14.318;2023-03-01T01:56:26;-0.10;99.90
15217;DHT22;7711;46.634;14.318;2023-03-01T01:58:55;0.00;99.90
15217;DHT22;7711;46.634;14.318;2023-03-01T02:01:24;0.00;99.90
15217;DHT22;7711;46.634;14.318;2023-03-01T02:03:52;-0.10;99.90
15217;DHT22;7711;46.634;14.318;2023-03-01T02:06:24;0.00;99.90
15217;DHT22;7711;46.634;14.318;2023-03-01T02:08:55;-0.10;99.90
15217;DHT22;7711;46.634;14.318;2023-03-01T02:11:24;-0.10;99.90
15217;DHT22;7711;46.634;14.318;2023-03-01T02:13:51;-0.10;99.90
15217;DHT22;7711;46.634;14.318;2023-03-01T02:16:20;-0.10;99.90
15217;DHT22;7711;46.634;14.318;2023-03-01T02:18:50;-0.10;99.90
15217;DHT22;7711;46.634;14.318;2023-03-01T02:21:37;-0.10;99.90
15217;DHT22;7711;46.634;14.318;2023-03-01T02:24:13;0.00;99.90
15217;DHT22;7711;46.634;14.318;2023-03-01T02:26:49;-0.10;99.90
15217;DHT22;7711;46.634;14.318;2023-03-01T02:29:20;-0.10;99.90
15217;DHT22;7711;46.634;14.318;2023-03-01T02:31:48;0.00;99.90
15217;DHT22;7711;46.634;14.318;2023-03-01T02:34:16;0.00;99.90
15217;DHT22;7711;46.634;14.318;2023-03-01T02:36:47;0.00;99.90
15217;DHT22;7711;46.634;14.318;2023-03-01T02:39:17;0.00;99.90
15217;DHT22;7711;46.634;14.318;2023-03-01T02:41:48;0.00;99.90
15217;DHT22;7711;46.634;14.318;2023-03-01T02:44:16;0.00;99.90
15217;DHT22;7711;46.634;14.318;2023-03-01T02:46:47;0.00;99.90
15217;DHT22;7711;46.634;14.318;2023-03-01T02:49:25;0.00;99.90
15217;DHT22;7711;46.634;14.318;2023-03-01T02:52:06;0.10;99.90
15217;DHT22;7711;46.634;14.318;2023-03-01T02:54:40;0.00;99.90
15217;DHT22;7711;46.634;14.318;2023-03-01T02:57:08;0.10;99.90
15217;DHT22;7711;46.634;14.318;2023-03-01T02:59:37;0.00;99.90
15217;DHT22;7711;46.634;14.318;2023-03-01T03:02:07;-0.10;99.90
15217;DHT22;7711;46.634;14.318;2023-03-01T03:04:34;0.00;99.90
15217;DHT22;7711;46.634;14.318;2023-03-01T03:07:01;-0.10;99.90
15217;DHT22;7711;46.634;14.318;2023-03-01T03:09:28;-0.10;99.90
15217;DHT22;7711;46.634;14.318;2023-03-01T03:11:55;0.00;99.90
15217;DHT22;7711;46.634;14.318;2023-03-01T03:14:22;-0.10;99.90
15217;DHT22;7711;46.634;14.318;2023-03-01T03:16:50;0.00;99.90
15217;DHT22;7711;46.634;14.318;2023-03-01T03:19:19;0.00;99.90
15217;DHT22;7711;46.634;14.318;2023-03-01T03:21:46;0.00;99.90
15217;DHT22;7711;46.634;14.318;2023-03-01T03:24:13;0.00;99.90
15217;DHT22;7711;46.634;14.318;2023-03-01T03:26:40;0.00;99.90
15217;DHT22;7711;46.634;14.318;2023-03-01T03:29:07;0.00;99.90
15217;DHT22;7711;46.634;14.318;2023-03-01T03:31:34;0.00;99.90
15217;DHT22;7711;46.634;14.318;2023-03-01T03:34:01;-0.10;99.90
15217;DHT22;7711;46.634;14.318;2023-03-01T03:36:29;-0.10;99.90
15217;DHT22;7711;46.634;14.318;2023-03-01T03:38:56;-0.10;99.90
15217;DHT22;7711;46.634;14.318;2023-03-01T03:41:23;-0.10;99.90
15217;DHT22;7711;46.634;14.318;2023-03-01T03:43:50;0.00;99.90
15217;DHT22;7711;46.634;14.318;2023-03-01T03:46:17;0.00;99.90
15217;DHT22;7711;46.634;14.318;2023-03-01T03:48:45;-0.10;99.90
15217;DHT22;7711;46.634;14.318;2023-03-01T03:51:14;-0.10;99.90
15217;DHT22;7711;46.634;14.318;2023-03-01T03:53:43;0.00;99.90
15217;DHT22;7711;46.634;14.318;2023-03-01T03:56:10;0.00;99.90
15217;DHT22;7711;46.634;14.318;2023-03-01T03:58:38;0.00;99.90
15217;DHT22;7711;46.634;14.318;2023-03-01T04:01:05;0.00;99.90
15217;DHT22;7711;46.634;14.318;2023-03-01T04:03:33;-0.10;99.90
15217;DHT22;7711;46.634;14.318;2023-03-01T04:06:01;-0.10;99.90
15217;DHT22;7711;46.634;14.318;2023-03-01T04:08:28;-0.10;99.90
15217;DHT22;7711;46.634;14.318;2023-03-01T04:11:00;-0.10;99.90
15217;DHT22;7711;46.634;14.318;2023-03-01T04:13:47;-0.10;99.90
15217;DHT22;7711;46.634;14.318;2023-03-01T04:16:14;-0.10;99.90
15217;DHT22;7711;46.634;14.318;2023-03-01T04:18:42;-0.10;99.90
15217;DHT22;7711;46.634;14.318;2023-03-01T04:21:09;-0.10;99.90
15217;DHT22;7711;46.634;14.318;2023-03-01T04:23:37;-0.10;99.90
15217;DHT22;7711;46.634;14.318;2023-03-01T04:26:06;-0.10;99.90
15217;DHT22;7711;46.634;14.318;2023-03-01T04:28:35;0.00;99.90
15217;DHT22;7711;46.634;14.318;2023-03-01T04:31:04;0.00;99.90
15217;DHT22;7711;46.634;14.318;2023-03-01T04:33:38;-0.10;99.90
15217;DHT22;7711;46.634;14.318;2023-03-01T04:36:06;-0.10;99.90
15217;DHT22;7711;46.634;14.318;2023-03-01T04:38:35;-0.10;99.90
15217;DHT22;7711;46.634;14.318;2023-03-01T04:41:03;-0.10;99.90
15217;DHT22;7711;46.634;14.318;2023-03-01T04:43:32;-0.10;99.90
15217;DHT22;7711;46.634;14.318;2023-03-01T04:46:04;0.00;99.90
15217;DHT22;7711;46.634;14.318;2023-03-01T04:48:33;-0.10;99.90
15217;DHT22;7711;46.634;14.318;2023-03-01T04:51:00;0.00;99.90
15217;DHT22;7711;46.634;14.318;2023-03-01T04:53:27;0.00;99.90
15217;DHT22;7711;46.634;14.318;2023-03-01T04:55:55;-0.10;99.90
15217;DHT22;7711;46.634;14.318;2023-03-01T04:58:22;-0.10;99.90
15217;DHT22;7711;46.634;14.318;2023-03-01T05:00:51;-0.10;99.90
15217;DHT22;7711;46.634;14.318;2023-03-01T05:03:19;0.00;99.90
15217;DHT22;7711;46.634;14.318;2023-03-01T05:05:48;-0.10;99.90
15217;DHT22;7711;46.634;14.318;2023-03-01T05:08:15;-0.10;99.90
15217;DHT22;7711;46.634;14.318;2023-03-01T05:10:45;-0.20;99.90
15217;DHT22;7711;46.634;14.318;2023-03-01T05:13:13;-0.30;99.90
15217;DHT22;7711;46.634;14.318;2023-03-01T05:15:40;-0.30;99.90
15217;DHT22;7711;46.634;14.318;2023-03-01T05:18:09;-0.20;99.90
15217;DHT22;7711;46.634;14.318;2023-03-01T05:20:37;-0.20;99.90
15217;DHT22;7711;46.634;14.318;2023-03-01T05:23:04;-0.10;99.90
15217;DHT22;7711;46.634;14.318;2023-03-01T05:25:32;-0.10;99.90
15217;DHT22;7711;46.634;14.318;2023-03-01T05:28:00;-0.10;99.90
15217;DHT22;7711;46.634;14.318;2023-03-01T05:30:30;-0.10;99.90
15217;DHT22;7711;46.634;14.318;2023-03-01T05:32:58;-0.20;99.90
15217;DHT22;7711;46.634;14.318;2023-03-01T05:35:27;-0.20;99.90
15217;DHT22;7711;46.634;14.318;2023-03-01T05:37:55;-0.10;99.90
15217;DHT22;7711;46.634;14.318;2023-03-01T05:40:23;-0.10;99.90
15217;DHT22;7711;46.634;14.318;2023-03-01T05:42:53;-0.20;99.90
15217;DHT22;7711;46.634;14.318;2023-03-01T05:45:21;-0.10;99.90
15217;DHT22;7711;46.634;14.318;2023-03-01T05:47:49;-0.20;99.90
15217;DHT22;7711;46.634;14.318;2023-03-01T05:50:19;-0.10;99.90
15217;DHT22;7711;46.634;14.318;2023-03-01T05:52:49;-0.10;99.90
15217;DHT22;7711;46.634;14.318;2023-03-01T05:55:16;-0.20;99.90
15217;DHT22;7711;46.634;14.318;2023-03-01T05:57:44;-0.20;99.90
15217;DHT22;7711;46.634;14.318;2023-03-01T06:00:13;-0.20;99.90
15217;DHT22;7711;46.634;14.318;2023-03-01T06:02:40;-0.20;99.90
15217;DHT22;7711;46.634;14.318;2023-03-01T06:05:09;-0.10;99.90
15217;DHT22;7711;46.634;14.318;2023-03-01T06:07:36;-0.10;99.90
15217;DHT22;7711;46.634;14.318;2023-03-01T06:10:06;-0.10;99.90
15217;DHT22;7711;46.634;14.318;2023-03-01T06:12:34;-0.10;99.90
15217;DHT22;7711;46.634;14.318;2023-03-01T06:15:03;-0.10;99.90
15217;DHT22;7711;46.634;14.318;2023-03-01T06:17:31;0.00;99.90
15217;DHT22;7711;46.634;14.318;2023-03-01T06:19:58;0.00;99.90
15217;DHT22;7711;46.634;14.318;2023-03-01T06:22:25;0.00;99.90
15217;DHT22;7711;46.634;14.318;2023-03-01T06:24:52;0.10;99.90
15217;DHT22;7711;46.634;14.318;2023-03-01T06:27:21;0.00;99.90
15217;DHT22;7711;46.634;14.318;2023-03-01T06:29:48;0.10;99.90
15217;DHT22;7711;46.634;14.318;2023-03-01T06:32:15;0.10;99.90
15217;DHT22;7711;46.634;14.318;2023-03-01T06:34:42;0.10;99.90
15217;DHT22;7711;46.634;14.318;2023-03-01T06:37:09;0.20;99.90
15217;DHT22;7711;46.634;14.318;2023-03-01T06:39:36;0.20;99.90
15217;DHT22;7711;46.634;14.318;2023-03-01T06:42:03;0.10;99.90
15217;DHT22;7711;46.634;14.318;2023-03-01T06:44:32;0.20;99.90
15217;DHT22;7711;46.634;14.318;2023-03-01T06:46:59;0.20;99.90
15217;DHT22;7711;46.634;14.318;2023-03-01T06:49:26;0.20;99.90
15217;DHT22;7711;46.634;14.318;2023-03-01T06:51:53;0.20;99.90
15217;DHT22;7711;46.634;14.318;2023-03-01T06:54:20;0.20;99.90
15217;DHT22;7711;46.634;14.318;2023-03-01T06:56:48;0.20;99.90
15217;DHT22;7711;46.634;14.318;2023-03-01T06:59:15;0.10;99.90
15217;DHT22;7711;46.634;14.318;2023-03-01T07:01:44;0.10;99.90
15217;DHT22;7711;46.634;14.318;2023-03-01T07:04:12;0.00;99.90
15217;DHT22;7711;46.634;14.318;2023-03-01T07:06:39;0.20;99.90
15217;DHT22;7711;46.634;14.318;2023-03-01T07:09:06;0.10;99.90
15217;DHT22;7711;46.634;14.318;2023-03-01T07:11:33;-0.10;99.90
15217;DHT22;7711;46.634;14.318;2023-03-01T07:14:00;0.00;99.90
15217;DHT22;7711;46.634;14.318;2023-03-01T07:16:27;-0.10;99.90
15217;DHT22;7711;46.634;14.318;2023-03-01T07:18:55;-0.10;99.90
15217;DHT22;7711;46.634;14.318;2023-03-01T07:21:22;-0.20;99.90
15217;DHT22;7711;46.634;14.318;2023-03-01T07:23:49;-0.20;99.90
15217;DHT22;7711;46.634;14.318;2023-03-01T07:26:16;-0.20;99.90
15217;DHT22;7711;46.634;14.318;2023-03-01T07:28:43;-0.30;99.90
15217;DHT22;7711;46.634;14.318;2023-03-01T07:31:10;-0.20;99.90
15217;DHT22;7711;46.634;14.318;2023-03-01T07:33:37;-0.30;99.90
15217;DHT22;7711;46.634;14.318;2023-03-01T07:36:06;-0.20;99.90
15217;DHT22;7711;46.634;14.318;2023-03-01T07:38:34;-0.20;99.90
15217;DHT22;7711;46.634;14.318;2023-03-01T07:41:02;-0.20;99.90
15217;DHT22;7711;46.634;14.318;2023-03-01T07:43:31;-0.20;99.90
15217;DHT22;7711;46.634;14.318;2023-03-01T07:45:58;-0.30;99.90
15217;DHT22;7711;46.634;14.318;2023-03-01T07:48:26;-0.10;99.90
15217;DHT22;7711;46.634;14.318;2023-03-01T07:50:53;-0.20;99.90
15217;DHT22;7711;46.634;14.318;2023-03-01T07:53:21;-0.20;99.90
15217;DHT22;7711;46.634;14.318;2023-03-01T07:55:48;-0.30;99.90
15217;DHT22;7711;46.634;14.318;2023-03-01T07:58:15;-0.20;99.90
15217;DHT22;7711;46.634;14.318;2023-03-01T08:00:42;-0.30;99.90
15217;DHT22;7711;46.634;14.318;2023-03-01T08:03:09;-0.10;99.90
15217;DHT22;7711;46.634;14.318;2023-03-01T08:05:36;-0.10;99.90
15217;DHT22;7711;46.634;14.318;2023-03-01T08:08:04;-0.20;99.90
15217;DHT22;7711;46.634;14.318;2023-03-01T08:10:33;-0.10;99.90
15217;DHT22;7711;46.634;14.318;2023-03-01T08:13:00;0.00;99.90
15217;DHT22;7711;46.634;14.318;2023-03-01T08:15:27;0.10;99.90
15217;DHT22;7711;46.634;14.318;2023-03-01T08:17:54;0.10;99.90
15217;DHT22;7711;46.634;14.318;2023-03-01T08:20:20;0.10;99.90
15217;DHT22;7711;46.634;14.318;2023-03-01T08:22:47;0.20;99.90
15217;DHT22;7711;46.634;14.318;2023-03-01T08:25:15;0.40;99.90
15217;DHT22;7711;46.634;14.318;2023-03-01T08:27:43;0.50;99.90
15217;DHT22;7711;46.634;14.318;2023-03-01T08:30:11;0.50;99.90
15217;DHT22;7711;46.634;14.318;2023-03-01T08:32:39;0.50;99.90
15217;DHT22;7711;46.634;14.318;2023-03-01T08:35:07;0.50;99.90
15217;DHT22;7711;46.634;14.318;2023-03-01T08:37:34;0.40;99.90
15217;DHT22;7711;46.634;14.318;2023-03-01T08:40:01;0.50;99.90
15217;DHT22;7711;46.634;14.318;2023-03-01T08:42:29;0.70;99.90
15217;DHT22;7711;46.634;14.318;2023-03-01T08:44:57;1.10;99.90
15217;DHT22;7711;46.634;14.318;2023-03-01T08:47:24;1.20;99.90
15217;DHT22;7711;46.634;14.318;2023-03-01T08:49:51;1.30;99.90
15217;DHT22;7711;46.634;14.318;2023-03-01T08:52:19;0.90;99.90
15217;DHT22;7711;46.634;14.318;2023-03-01T08:54:47;0.80;99.90
15217;DHT22;7711;46.634;14.318;2023-03-01T08:57:15;0.70;99.90
15217;DHT22;7711;46.634;14.318;2023-03-01T08:59:42;0.90;99.90
15217;DHT22;7711;46.634;14.318;2023-03-01T09:02:13;1.20;99.90
15217;DHT22;7711;46.634;14.318;2023-03-01T09:04:41;1.30;99.90
15217;DHT22;7711;46.634;14.318;2023-03-01T09:07:08;1.40;99.90
15217;DHT22;7711;46.634;14.318;2023-03-01T09:09:35;1.10;99.90
15217;DHT22;7711;46.634;14.318;2023-03-01T09:12:03;1.30;99.90
15217;DHT22;7711;46.634;14.318;2023-03-01T09:14:30;1.40;99.90
15217;DHT22;7711;46.634;14.318;2023-03-01T09:16:57;1.60;99.90
15217;DHT22;7711;46.634;14.318;2023-03-01T09:19:29;1.40;99.90
15217;DHT22;7711;46.634;14.318;2023-03-01T09:21:57;1.40;99.90
15217;DHT22;7711;46.634;14.318;2023-03-01T09:24:25;1.30;99.90
15217;DHT22;7711;46.634;14.318;2023-03-01T09:26:53;1.40;99.90
15217;DHT22;7711;46.634;14.318;2023-03-01T09:29:20;1.50;99.90
15217;DHT22;7711;46.634;14.318;2023-03-01T09:31:47;1.50;99.90
15217;DHT22;7711;46.634;14.318;2023-03-01T09:34:14;1.40;99.90
15217;DHT22;7711;46.634;14.318;2023-03-01T09:36:46;1.50;99.90
15217;DHT22;7711;46.634;14.318;2023-03-01T09:39:13;1.70;99.90
15217;DHT22;7711;46.634;14.318;2023-03-01T09:41:46;1.60;99.90
15217;DHT22;7711;46.634;14.318;2023-03-01T09:44:21;1.50;99.90
15217;DHT22;7711;46.634;14.318;2023-03-01T09:46:51;1.40;99.90
15217;DHT22;7711;46.634;14.318;2023-03-01T09:49:19;1.30;99.90
15217;DHT22;7711;46.634;14.318;2023-03-01T09:52:00;1.40;99.90
15217;DHT22;7711;46.634;14.318;2023-03-01T09:54:27;1.70;99.90
15217;DHT22;7711;46.634;14.318;2023-03-01T09:57:06;1.80;99.90
15217;DHT22;7711;46.634;14.318;2023-03-01T09:59:48;1.90;99.90
15217;DHT22;7711;46.634;14.318;2023-03-01T10:02:24;2.10;99.90
15217;DHT22;7711;46.634;14.318;2023-03-01T10:04:55;1.90;99.90
15217;DHT22;7711;46.634;14.318;2023-03-01T10:07:32;1.60;99.90
15217;DHT22;7711;46.634;14.318;2023-03-01T10:10:06;1.70;99.90
15217;DHT22;7711;46.634;14.318;2023-03-01T10:12:35;1.50;99.90
15217;DHT22;7711;46.634;14.318;2023-03-01T10:15:07;1.70;99.90
15217;DHT22;7711;46.634;14.318;2023-03-01T10:17:41;1.90;99.90
15217;DHT22;7711;46.634;14.318;2023-03-01T10:20:17;2.00;99.90
15217;DHT22;7711;46.634;14.318;2023-03-01T10:22:47;2.10;99.90
15217;DHT22;7711;46.634;14.318;2023-03-01T10:25:28;2.10;99.90
15217;DHT22;7711;46.634;14.318;2023-03-01T10:28:02;1.90;99.90
15217;DHT22;7711;46.634;14.318;2023-03-01T10:30:35;1.70;99.90
15217;DHT22;7711;46.634;14.318;2023-03-01T10:33:08;1.50;99.90
15217;DHT22;7711;46.634;14.318;2023-03-01T10:35:40;1.60;99.90
15217;DHT22;7711;46.634;14.318;2023-03-01T10:38:11;1.60;99.90
15217;DHT22;7711;46.634;14.318;2023-03-01T10:40:50;1.60;99.90
15217;DHT22;7711;46.634;14.318;2023-03-01T10:43:18;1.60;99.90
15217;DHT22;7711;46.634;14.318;2023-03-01T10:45:46;1.60;99.90
15217;DHT22;7711;46.634;14.318;2023-03-01T10:48:14;1.70;99.90
15217;DHT22;7711;46.634;14.318;2023-03-01T10:50:43;1.90;99.90
15217;DHT22;7711;46.634;14.318;2023-03-01T10:53:34;1.90;99.90
15217;DHT22;7711;46.634;14.318;2023-03-01T10:56:04;1.90;99.90
15217;DHT22;7711;46.634;14.318;2023-03-01T10:58:32;2.00;99.90
15217;DHT22;7711;46.634;14.318;2023-03-01T11:01:01;1.80;99.90
15217;DHT22;7711;46.634;14.318;2023-03-01T11:03:30;1.80;99.90
15217;DHT22;7711;46.634;14.318;2023-03-01T11:06:01;1.70;99.90
15217;DHT22;7711;46.634;14.318;2023-03-01T11:08:38;1.60;99.90
15217;DHT22;7711;46.634;14.318;2023-03-01T11:11:21;1.80;99.90
15217;DHT22;7711;46.634;14.318;2023-03-01T11:13:55;1.70;99.90
15217;DHT22;7711;46.634;14.318;2023-03-01T11:16:32;1.80;99.90
15217;DHT22;7711;46.634;14.318;2023-03-01T11:19:13;2.00;99.90
15217;DHT22;7711;46.634;14.318;2023-03-01T11:21:44;1.80;99.90
15217;DHT22;7711;46.634;14.318;2023-03-01T11:24:17;1.80;99.90
15217;DHT22;7711;46.634;14.318;2023-03-01T11:26:47;1.80;99.90
15217;DHT22;7711;46.634;14.318;2023-03-01T11:29:25;2.00;99.90
15217;DHT22;7711;46.634;14.318;2023-03-01T11:31:57;2.00;99.90
15217;DHT22;7711;46.634;14.318;2023-03-01T11:34:36;2.10;99.90
15217;DHT22;7711;46.634;14.318;2023-03-01T11:37:20;2.00;99.90
15217;DHT22;7711;46.634;14.318;2023-03-01T11:39:57;2.10;99.90
15217;DHT22;7711;46.634;14.318;2023-03-01T11:42:35;1.90;99.90
15217;DHT22;7711;46.634;14.318;2023-03-01T11:45:09;1.80;99.90
15217;DHT22;7711;46.634;14.318;2023-03-01T11:48:04;1.60;99.90
15217;DHT22;7711;46.634;14.318;2023-03-01T11:50:39;1.60;99.90
15217;DHT22;7711;46.634;14.318;2023-03-01T11:53:33;1.60;99.90
15217;DHT22;7711;46.634;14.318;2023-03-01T11:56:13;1.80;99.90
15217;DHT22;7711;46.634;14.318;2023-03-01T11:59:07;1.60;99.90
15217;DHT22;7711;46.634;14.318;2023-03-01T12:01:50;1.70;99.90
15217;DHT22;7711;46.634;14.318;2023-03-01T12:04:36;1.80;99.90
15217;DHT22;7711;46.634;14.318;2023-03-01T12:07:17;2.00;99.90
15217;DHT22;7711;46.634;14.318;2023-03-01T12:10:06;1.90;99.90
15217;DHT22;7711;46.634;14.318;2023-03-01T12:12:54;1.90;99.90
15217;DHT22;7711;46.634;14.318;2023-03-01T12:15:46;2.10;99.90
15217;DHT22;7711;46.634;14.318;2023-03-01T12:18:37;2.20;99.90
15217;DHT22;7711;46.634;14.318;2023-03-01T12:21:17;2.20;99.90
15217;DHT22;7711;46.634;14.318;2023-03-01T12:24:08;2.10;99.90
15217;DHT22;7711;46.634;14.318;2023-03-01T12:26:44;2.20;99.90
15217;DHT22;7711;46.634;14.318;2023-03-01T12:29:27;2.10;99.90
15217;DHT22;7711;46.634;14.318;2023-03-01T12:32:15;2.20;99.90
15217;DHT22;7711;46.634;14.318;2023-03-01T12:35:09;2.20;99.90
15217;DHT22;7711;46.634;14.318;2023-03-01T12:37:51;2.20;99.90
15217;DHT22;7711;46.634;14.318;2023-03-01T12:40:40;2.30;99.90
15217;DHT22;7711;46.634;14.318;2023-03-01T12:43:20;2.30;99.90
15217;DHT22;7711;46.634;14.318;2023-03-01T12:46:05;2.20;99.90
15217;DHT22;7711;46.634;14.318;2023-03-01T12:48:43;2.20;99.90
15217;DHT22;7711;46.634;14.318;2023-03-01T12:51:14;2.30;99.90
15217;DHT22;7711;46.634;14.318;2023-03-01T12:53:45;2.20;99.90
15217;DHT22;7711;46.634;14.318;2023-03-01T12:56:16;2.20;99.90
15217;DHT22;7711;46.634;14.318;2023-03-01T12:58:53;2.20;99.90
15217;DHT22;7711;46.634;14.318;2023-03-01T13:01:36;2.10;99.90
15217;DHT22;7711;46.634;14.318;2023-03-01T13:04:16;2.10;99.90
15217;DHT22;7711;46.634;14.318;2023-03-01T13:06:51;2.30;99.90
15217;DHT22;7711;46.634;14.318;2023-03-01T13:09:25;2.50;99.90
15217;DHT22;7711;46.634;14.318;2023-03-01T13:11:55;2.50;99.90
15217;DHT22;7711;46.634;14.318;2023-03-01T13:14:45;2.50;99.90
15217;DHT22;7711;46.634;14.318;2023-03-01T13:17:32;2.50;99.90
15217;DHT22;7711;46.634;14.318;2023-03-01T13:20:00;2.50;99.90
15217;DHT22;7711;46.634;14.318;2023-03-01T13:22:32;2.50;99.90
15217;DHT22;7711;46.634;14.318;2023-03-01T13:25:12;2.20;99.90
15217;DHT22;7711;46.634;14.318;2023-03-01T13:27:40;2.30;99.90
15217;DHT22;7711;46.634;14.318;2023-03-01T13:30:39;2.30;99.90
15217;DHT22;7711;46.634;14.318;2023-03-01T13:36:47;2.10;99.90
15217;DHT22;7711;46.634;14.318;2023-03-01T13:39:29;2.20;99.90
15217;DHT22;7711;46.634;14.318;2023-03-01T13:41:58;1.90;99.90
15217;DHT22;7711;46.634;14.318;2023-03-01T13:44:30;2.00;99.90
15217;DHT22;7711;46.634;14.318;2023-03-01T13:47:07;2.20;99.90
15217;DHT22;7711;46.634;14.318;2023-03-01T13:49:46;2.10;99.90
15217;DHT22;7711;46.634;14.318;2023-03-01T13:52:36;2.10;99.90
15217;DHT22;7711;46.634;14.318;2023-03-01T13:55:16;2.00;99.90
15217;DHT22;7711;46.634;14.318;2023-03-01T13:57:46;2.00;99.90
15217;DHT22;7711;46.634;14.318;2023-03-01T14:00:27;2.00;99.90
15217;DHT22;7711;46.634;14.318;2023-03-01T14:03:02;1.90;99.90
15217;DHT22;7711;46.634;14.318;2023-03-01T14:05:30;1.90;99.90
15217;DHT22;7711;46.634;14.318;2023-03-01T14:07:58;1.90;99.90
15217;DHT22;7711;46.634;14.318;2023-03-01T14:10:31;2.00;99.90
15217;DHT22;7711;46.634;14.318;2023-03-01T14:13:12;2.00;99.90
15217;DHT22;7711;46.634;14.318;2023-03-01T14:15:51;2.00;99.90
15217;DHT22;7711;46.634;14.318;2023-03-01T14:18:24;2.10;99.90
15217;DHT22;7711;46.634;14.318;2023-03-01T14:20:52;2.30;99.90
15217;DHT22;7711;46.634;14.318;2023-03-01T14:23:22;2.10;99.90
15217;DHT22;7711;46.634;14.318;2023-03-01T14:25:51;2.10;99.90
15217;DHT22;7711;46.634;14.318;2023-03-01T14:28:21;2.20;99.90
15217;DHT22;7711;46.634;14.318;2023-03-01T14:30:51;2.30;99.90
15217;DHT22;7711;46.634;14.318;2023-03-01T14:33:21;2.30;99.90
15217;DHT22;7711;46.634;14.318;2023-03-01T14:35:53;2.30;99.90
15217;DHT22;7711;46.634;14.318;2023-03-01T14:38:23;2.40;99.90
15217;DHT22;7711;46.634;14.318;2023-03-01T14:40:53;2.40;99.90
15217;DHT22;7711;46.634;14.318;2023-03-01T14:43:23;2.40;99.90
15217;DHT22;7711;46.634;14.318;2023-03-01T14:45:51;2.20;99.90
15217;DHT22;7711;46.634;14.318;2023-03-01T14:48:19;2.10;99.90
15217;DHT22;7711;46.634;14.318;2023-03-01T14:50:46;2.00;99.90
15217;DHT22;7711;46.634;14.318;2023-03-01T14:53:17;2.20;99.90
15217;DHT22;7711;46.634;14.318;2023-03-01T14:55:48;2.20;99.90
15217;DHT22;7711;46.634;14.318;2023-03-01T14:58:20;2.20;99.90
15217;DHT22;7711;46.634;14.318;2023-03-01T15:00:51;2.00;99.90
15217;DHT22;7711;46.634;14.318;2023-03-01T15:03:25;2.10;99.90
15217;DHT22;7711;46.634;14.318;2023-03-01T15:05:52;1.90;99.90
15217;DHT22;7711;46.634;14.318;2023-03-01T15:08:23;1.90;99.90
15217;DHT22;7711;46.634;14.318;2023-03-01T15:11:00;1.90;99.90
15217;DHT22;7711;46.634;14.318;2023-03-01T15:13:31;2.10;99.90
15217;DHT22;7711;46.634;14.318;2023-03-01T15:16:06;2.00;99.90
15217;DHT22;7711;46.634;14.318;2023-03-01T15:18:35;2.10;99.90
15217;DHT22;7711;46.634;14.318;2023-03-01T15:21:08;2.10;99.90
15217;DHT22;7711;46.634;14.318;2023-03-01T15:23:37;2.00;99.90
15217;DHT22;7711;46.634;14.318;2023-03-01T15:26:22;2.10;99.90
15217;DHT22;7711;46.634;14.318;2023-03-01T15:28:52;2.10;99.90
15217;DHT22;7711;46.634;14.318;2023-03-01T15:31:22;2.10;99.90
15217;DHT22;7711;46.634;14.318;2023-03-01T15:33:50;2.20;99.90
15217;DHT22;7711;46.634;14.318;2023-03-01T15:36:39;2.10;99.90
15217;DHT22;7711;46.634;14.318;2023-03-01T15:39:36;2.00;99.90
15217;DHT22;7711;46.634;14.318;2023-03-01T15:42:11;1.90;99.90
15217;DHT22;7711;46.634;14.318;2023-03-01T15:44:40;1.90;99.90
15217;DHT22;7711;46.634;14.318;2023-03-01T15:47:26;1.80;99.90
15217;DHT22;7711;46.634;14.318;2023-03-01T15:49:54;1.70;99.90
15217;DHT22;7711;46.634;14.318;2023-03-01T15:52:24;1.60;99.90
15217;DHT22;7711;46.634;14.318;2023-03-01T15:54:56;1.60;99.90
15217;DHT22;7711;46.634;14.318;2023-03-01T15:57:24;1.60;99.90
15217;DHT22;7711;46.634;14.318;2023-03-01T15:59:52;1.60;99.90
15217;DHT22;7711;46.634;14.318;2023-03-01T16:02:19;1.60;99.90
15217;DHT22;7711;46.634;14.318;2023-03-01T16:04:47;1.60;99.90
15217;DHT22;7711;46.634;14.318;2023-03-01T16:07:15;1.50;99.90
15217;DHT22;7711;46.634;14.318;2023-03-01T16:09:43;1.50;99.90